createdAt,value
2022-11-16T00:04:04.730Z,11.86
2022-11-16T00:14:07.997Z,11.84
2022-11-16T00:24:13.730Z,11.87
2022-11-16T00:34:17.059Z,11.86
2022-11-16T00:44:21.326Z,11.86
2022-11-16T00:54:24.352Z,11.86
2022-11-16T01:04:28.761Z,11.80
2022-11-16T01:14:31.789Z,11.85
2022-11-16T01:24:36.175Z,11.88
2022-11-16T01:34:39.348Z,11.91
2022-11-16T01:45:00.302Z,11.94
2022-11-16T01:55:04.051Z,11.97
2022-11-16T02:05:22.341Z,11.95
2022-11-16T02:15:41.525Z,11.99
2022-11-16T02:26:01.111Z,12.02
2022-11-16T02:36:09.956Z,11.99
2022-11-16T02:46:20.858Z,12.02
2022-11-16T02:56:25.681Z,11.91
2022-11-16T03:06:32.731Z,11.83
2022-11-16T03:16:39.835Z,11.73
2022-11-16T03:26:50.413Z,11.56
2022-11-16T03:36:58.035Z,11.37
2022-11-16T03:47:02.427Z,11.10
2022-11-16T03:57:06.851Z,10.98
2022-11-16T04:07:27.978Z,10.88
2022-11-16T04:17:50.213Z,10.79
2022-11-16T04:28:12.539Z,10.75
2022-11-16T04:38:17.826Z,10.59
2022-11-16T04:48:22.117Z,10.54
2022-11-16T04:58:30.536Z,10.43
2022-11-16T05:08:34.006Z,10.34
2022-11-16T05:18:38.919Z,10.21
2022-11-16T05:28:42.399Z,10.06
2022-11-16T05:38:52.643Z,9.78
2022-11-16T05:49:00.324Z,9.45
2022-11-16T05:59:05.091Z,9.29
2022-11-16T06:09:09.475Z,9.20
2022-11-16T06:19:15.064Z,9.13
2022-11-16T06:29:18.094Z,9.03
2022-11-16T06:39:22.752Z,8.96
2022-11-16T06:49:26.037Z,8.92
2022-11-16T06:59:35.079Z,8.84
2022-11-16T07:09:38.231Z,8.85
2022-11-16T07:19:42.807Z,8.85
2022-11-16T07:29:46.731Z,8.88
2022-11-16T07:40:01.891Z,8.90
2022-11-16T07:50:06.084Z,8.91
2022-11-16T08:00:13.246Z,8.89
2022-11-16T08:10:31.093Z,8.92
2022-11-16T08:20:36.780Z,8.98
2022-11-16T08:30:40.567Z,9.06
2022-11-16T08:40:46.019Z,9.13
2022-11-16T08:51:15.973Z,9.19
2022-11-16T09:01:15.998Z,9.29
2022-11-16T09:11:21.801Z,9.37
2022-11-16T09:21:27.827Z,9.44
2022-11-16T09:31:34.773Z,9.61
2022-11-16T09:41:59.333Z,9.70
2022-11-16T09:52:07.171Z,9.83
2022-11-16T10:02:22.013Z,9.98
2022-11-16T10:12:34.984Z,10.14
2022-11-16T10:22:50.122Z,10.30
2022-11-16T10:32:54.797Z,10.49
2022-11-16T10:43:11.596Z,10.69
2022-11-16T10:53:16.232Z,10.87
2022-11-16T11:03:31.717Z,11.11
2022-11-16T11:13:35.357Z,11.49
2022-11-16T11:23:46.525Z,11.63
2022-11-16T11:33:52.185Z,11.82
2022-11-16T11:44:04.370Z,11.82
2022-11-16T11:54:15.149Z,11.88
2022-11-16T12:04:50.374Z,11.99
2022-11-16T12:15:01.157Z,11.99
2022-11-16T12:25:30.341Z,12.09
2022-11-16T12:35:55.284Z,12.07
2022-11-16T12:46:07.236Z,12.07
2022-11-16T12:56:18.777Z,12.13
2022-11-16T13:06:29.931Z,12.18
2022-11-16T13:16:32.965Z,12.37
2022-11-16T13:26:46.005Z,12.56
2022-11-16T13:36:48.989Z,12.43
2022-11-16T13:46:57.197Z,12.51
2022-11-16T13:57:02.392Z,12.41
2022-11-16T14:07:26.917Z,12.32
2022-11-16T14:17:51.788Z,12.48
2022-11-16T14:28:22.050Z,12.20
2022-11-16T14:38:32.984Z,12.09
2022-11-16T14:48:44.712Z,11.98
2022-11-16T14:58:54.872Z,11.78
2022-11-16T15:09:03.630Z,11.62
2022-11-16T15:19:13.486Z,11.42
2022-11-16T15:29:20.906Z,11.23
2022-11-16T15:39:25.540Z,11.20
2022-11-16T15:49:32.372Z,11.18
2022-11-16T15:59:38.196Z,10.95
2022-11-16T16:09:43.659Z,10.65
2022-11-16T16:19:48.496Z,10.51
2022-11-16T16:29:54.478Z,10.33
2022-11-16T16:39:57.599Z,10.20
2022-11-16T16:50:02.034Z,10.03
2022-11-16T17:00:08.609Z,10.08
2022-11-16T17:10:12.943Z,10.22
2022-11-16T17:20:17.076Z,10.22
2022-11-16T17:30:21.581Z,10.29
2022-11-16T17:40:24.832Z,10.54
2022-11-16T17:50:29.228Z,10.70
2022-11-16T18:00:32.194Z,10.71
2022-11-16T18:10:38.117Z,10.71
2022-11-16T18:20:41.104Z,10.65
2022-11-16T18:30:45.520Z,10.64
2022-11-16T18:41:03.010Z,10.55
2022-11-16T18:51:07.573Z,10.51
2022-11-16T19:01:13.596Z,10.52
2022-11-16T19:11:18.552Z,10.57
2022-11-16T19:21:22.289Z,10.58
2022-11-16T19:31:28.867Z,10.55
2022-11-16T19:41:32.071Z,10.54
2022-11-16T19:51:36.742Z,10.50
2022-11-16T20:01:39.860Z,10.37
2022-11-16T20:11:44.245Z,10.35
2022-11-16T20:21:47.390Z,10.36
2022-11-16T20:31:51.872Z,10.38
2022-11-16T20:41:54.797Z,10.44
2022-11-16T20:51:59.164Z,10.52
2022-11-16T21:02:02.115Z,10.53
2022-11-16T21:12:23.943Z,10.64
2022-11-16T21:22:31.070Z,10.59
2022-11-16T21:32:36.539Z,10.43
2022-11-16T21:42:39.724Z,10.39
2022-11-16T21:52:43.989Z,10.28
2022-11-16T22:02:47.043Z,10.16
2022-11-16T22:12:51.495Z,10.02
2022-11-16T22:22:54.418Z,9.96
2022-11-16T22:32:58.919Z,9.94
2022-11-16T22:43:01.921Z,9.94
2022-11-16T22:53:06.243Z,10.02
2022-11-16T23:03:09.186Z,10.02
2022-11-16T23:13:31.133Z,10.07
2022-11-16T23:23:51.544Z,10.11
2022-11-16T23:33:55.827Z,10.11
2022-11-16T23:43:58.990Z,10.11
2022-11-16T23:54:04.816Z,10.09
